createdAt,value
2023-01-28T00:01:38.164Z,1.20
2023-01-28T00:04:06.796Z,1.20
2023-01-28T00:06:35.763Z,1.10
2023-01-28T00:09:05.752Z,1.10
2023-01-28T00:11:34.089Z,1.10
2023-01-28T00:14:04.736Z,1.10
2023-01-28T00:16:33.145Z,1.10
2023-01-28T00:19:01.428Z,1.10
2023-01-28T00:21:29.761Z,1.10
2023-01-28T00:23:58.608Z,1.10
2023-01-28T00:26:28.504Z,1.10
2023-01-28T00:28:56.909Z,1.10
2023-01-28T00:31:27.420Z,1.10
2023-01-28T00:33:57.139Z,1.10
2023-01-28T00:36:27.274Z,1.10
2023-01-28T00:38:57.704Z,1.10
2023-01-28T00:41:29.092Z,1.10
2023-01-28T00:43:58.725Z,1.10
2023-01-28T00:46:28.012Z,1.10
2023-01-28T00:48:56.672Z,1.10
2023-01-28T00:51:25.229Z,1.10
2023-01-28T00:53:54.017Z,1.10
2023-01-28T00:56:22.579Z,1.10
2023-01-28T00:58:53.151Z,1.10
2023-01-28T01:01:24.091Z,1.10
2023-01-28T01:04:02.592Z,1.10
2023-01-28T01:06:33.471Z,1.10
2023-01-28T01:09:02.021Z,1.10
2023-01-28T01:11:30.558Z,1.10
2023-01-28T01:14:01.650Z,1.00
2023-01-28T01:16:33.417Z,1.10
2023-01-28T01:19:02.125Z,1.00
2023-01-28T01:21:31.863Z,1.00
2023-01-28T01:24:00.277Z,1.00
2023-01-28T01:26:28.788Z,1.00
2023-01-28T01:28:57.229Z,1.00
2023-01-28T01:31:27.169Z,1.10
2023-01-28T01:33:56.540Z,1.10
2023-01-28T01:36:24.889Z,1.10
2023-01-28T01:38:55.849Z,1.10
2023-01-28T01:41:27.652Z,1.10
2023-01-28T01:43:58.942Z,1.10
2023-01-28T01:46:34.689Z,1.10
2023-01-28T01:49:09.317Z,1.10
2023-01-28T01:51:38.618Z,1.10
2023-01-28T01:54:07.571Z,1.10
2023-01-28T01:56:42.646Z,1.00
2023-01-28T01:59:14.013Z,1.00
2023-01-28T02:01:45.756Z,1.00
2023-01-28T02:04:21.257Z,1.00
2023-01-28T02:06:50.244Z,1.00
2023-01-28T02:09:25.814Z,1.00
2023-01-28T02:11:56.767Z,1.00
2023-01-28T02:14:31.417Z,1.00
2023-01-28T02:17:02.717Z,1.00
2023-01-28T02:19:38.499Z,1.00
2023-01-28T02:22:51.927Z,1.00
2023-01-28T02:25:48.101Z,1.00
2023-01-28T02:28:26.237Z,1.00
2023-01-28T02:30:59.984Z,1.00
2023-01-28T02:33:34.837Z,1.00
2023-01-28T02:36:15.054Z,1.00
2023-01-28T02:38:48.060Z,1.00
2023-01-28T02:41:25.121Z,1.00
2023-01-28T02:43:55.089Z,1.00
2023-01-28T02:46:54.826Z,0.90
2023-01-28T02:49:28.232Z,0.90
2023-01-28T02:52:10.915Z,0.90
2023-01-28T02:54:46.724Z,0.90
2023-01-28T02:57:33.579Z,0.90
2023-01-28T03:00:11.683Z,0.90
2023-01-28T03:02:50.335Z,0.90
2023-01-28T03:05:22.739Z,0.90
2023-01-28T03:07:51.977Z,0.90
2023-01-28T03:10:22.011Z,0.90
2023-01-28T03:13:18.891Z,0.90
2023-01-28T03:16:07.359Z,0.90
2023-01-28T03:18:59.299Z,0.90
2023-01-28T03:21:49.631Z,0.90
2023-01-28T03:24:40.083Z,0.90
2023-01-28T03:27:33.060Z,0.90
2023-01-28T03:30:22.518Z,0.90
2023-01-28T03:33:09.693Z,0.90
2023-01-28T03:35:55.840Z,0.90
2023-01-28T03:38:26.046Z,0.80
2023-01-28T03:40:58.696Z,0.80
2023-01-28T03:43:27.387Z,0.80
2023-01-28T03:45:55.692Z,0.80
2023-01-28T03:48:27.333Z,0.80
2023-01-28T03:50:57.531Z,0.80
2023-01-28T03:53:26.235Z,0.80
2023-01-28T03:55:56.610Z,0.80
2023-01-28T03:58:27.279Z,0.80
2023-01-28T04:00:55.890Z,0.80
2023-01-28T04:03:25.636Z,0.80
2023-01-28T04:06:00.511Z,0.80
2023-01-28T04:08:28.878Z,0.80
2023-01-28T04:10:57.538Z,0.80
2023-01-28T04:13:26.173Z,0.80
2023-01-28T04:15:54.587Z,0.80
2023-01-28T04:18:27.478Z,0.80
2023-01-28T04:20:57.223Z,0.80
2023-01-28T04:23:25.689Z,0.80
2023-01-28T04:25:54.029Z,0.80
2023-01-28T04:28:22.422Z,0.80
2023-01-28T04:30:50.876Z,0.80
2023-01-28T04:33:19.173Z,0.80
2023-01-28T04:35:47.551Z,0.80
2023-01-28T04:38:17.314Z,0.80
2023-01-28T04:40:45.630Z,0.80
2023-01-28T04:43:13.911Z,0.80
2023-01-28T04:45:42.259Z,0.80
2023-01-28T04:48:10.614Z,0.80
2023-01-28T04:50:38.927Z,0.70
2023-01-28T04:53:07.228Z,0.70
2023-01-28T04:55:37.213Z,0.70
2023-01-28T04:58:08.847Z,0.70
2023-01-28T05:00:37.404Z,0.70
2023-01-28T05:03:05.761Z,0.70
2023-01-28T05:05:34.353Z,0.70
2023-01-28T05:08:25.890Z,0.70
2023-01-28T05:10:56.860Z,0.70
2023-01-28T05:13:25.479Z,0.70
2023-01-28T05:15:54.248Z,0.70
2023-01-28T05:18:22.713Z,0.70
2023-01-28T05:20:51.108Z,0.70
2023-01-28T05:23:19.473Z,0.70
2023-01-28T05:25:47.765Z,0.70
2023-01-28T05:28:17.641Z,0.70
2023-01-28T05:30:45.987Z,0.70
2023-01-28T05:33:14.343Z,0.60
2023-01-28T05:35:43.716Z,0.70
2023-01-28T05:38:15.185Z,0.60
2023-01-28T05:40:43.688Z,0.60
2023-01-28T05:43:12.055Z,0.60
2023-01-28T05:45:41.802Z,0.60
2023-01-28T05:48:10.248Z,0.60
2023-01-28T05:50:38.589Z,0.60
2023-01-28T05:53:07.409Z,0.60
2023-01-28T05:55:35.731Z,0.60
2023-01-28T05:58:03.971Z,0.50
2023-01-28T06:00:32.531Z,0.60
2023-01-28T06:03:02.218Z,0.60
2023-01-28T06:05:30.682Z,0.50
2023-01-28T06:07:59.061Z,0.50
2023-01-28T06:10:27.423Z,0.50
2023-01-28T06:12:55.844Z,0.50
2023-01-28T06:15:24.200Z,0.50
2023-01-28T06:17:52.488Z,0.50
2023-01-28T06:20:22.261Z,0.50
2023-01-28T06:22:52.124Z,0.50
2023-01-28T06:25:20.942Z,0.50
2023-01-28T06:27:49.459Z,0.50
2023-01-28T06:30:18.579Z,0.50
2023-01-28T06:32:46.916Z,0.50
2023-01-28T06:35:15.259Z,0.50
2023-01-28T06:37:45.520Z,0.50
2023-01-28T06:40:14.783Z,0.50
2023-01-28T06:42:43.323Z,0.50
2023-01-28T06:45:12.458Z,0.50
2023-01-28T06:47:40.942Z,0.50
2023-01-28T06:50:10.184Z,0.40
2023-01-28T06:52:38.501Z,0.40
2023-01-28T06:55:09.202Z,0.40
2023-01-28T06:57:39.840Z,0.40
2023-01-28T07:00:11.431Z,0.40
2023-01-28T07:02:39.789Z,0.40
2023-01-28T07:05:08.979Z,0.40
2023-01-28T07:10:18.359Z,0.40
2023-01-28T07:12:46.421Z,0.40
2023-01-28T07:15:15.184Z,0.40
2023-01-28T07:17:43.949Z,0.40
2023-01-28T07:20:14.657Z,0.40
2023-01-28T07:22:44.829Z,0.40
2023-01-28T07:25:15.948Z,0.40
2023-01-28T07:27:49.118Z,0.40
2023-01-28T07:30:18.634Z,0.40
2023-01-28T07:32:47.496Z,0.40
2023-01-28T07:35:16.048Z,0.40
2023-01-28T07:37:44.131Z,0.40
2023-01-28T07:40:14.612Z,0.40
2023-01-28T07:42:42.822Z,0.40
2023-01-28T07:45:11.633Z,0.40
2023-01-28T07:47:39.733Z,0.40
2023-01-28T07:50:08.591Z,0.40
2023-01-28T07:52:44.158Z,0.40
2023-01-28T07:55:15.388Z,0.50
2023-01-28T07:57:51.185Z,0.50
2023-01-28T08:00:20.291Z,0.50
2023-01-28T08:02:48.988Z,0.50
2023-01-28T08:05:18.999Z,0.50
2023-01-28T08:07:48.673Z,0.50
2023-01-28T08:10:19.368Z,0.50
2023-01-28T08:12:54.500Z,0.60
2023-01-28T08:15:23.520Z,0.60
2023-01-28T08:17:51.851Z,0.60
2023-01-28T08:20:20.094Z,0.60
2023-01-28T08:22:48.142Z,0.60
2023-01-28T08:25:18.034Z,0.70
2023-01-28T08:27:46.356Z,0.70
2023-01-28T08:30:15.162Z,0.70
2023-01-28T08:32:43.430Z,0.70
2023-01-28T08:35:11.440Z,0.70
2023-01-28T08:37:39.494Z,0.80
2023-01-28T08:40:08.930Z,0.80
2023-01-28T08:42:38.518Z,0.80
2023-01-28T08:45:07.886Z,0.90
2023-01-28T08:47:35.924Z,0.90
2023-01-28T08:50:04.009Z,0.90
2023-01-28T08:52:32.157Z,0.90
2023-01-28T08:55:00.243Z,0.90
2023-01-28T08:57:28.256Z,0.90
2023-01-28T08:59:57.808Z,0.90
2023-01-28T09:02:31.774Z,0.90
2023-01-28T09:05:00.556Z,0.90
2023-01-28T09:07:28.605Z,0.90
2023-01-28T09:09:56.617Z,1.00
2023-01-28T09:12:25.121Z,1.00
2023-01-28T09:14:53.601Z,0.90
2023-01-28T09:17:23.636Z,0.90
2023-01-28T09:19:52.182Z,0.90
2023-01-28T09:22:20.492Z,0.90
2023-01-28T09:24:48.613Z,0.90
2023-01-28T09:27:16.690Z,0.90
2023-01-28T09:29:44.809Z,0.90
2023-01-28T09:32:13.135Z,0.90
2023-01-28T09:34:44.419Z,0.90
2023-01-28T09:37:12.691Z,0.90
2023-01-28T09:39:40.794Z,0.80
2023-01-28T09:42:24.173Z,0.80
2023-01-28T09:45:02.885Z,0.80
2023-01-28T09:47:37.420Z,0.80
2023-01-28T09:50:10.178Z,0.80
2023-01-28T09:52:41.187Z,0.80
2023-01-28T09:55:18.039Z,0.80
2023-01-28T09:57:50.677Z,0.90
2023-01-28T10:00:22.636Z,0.90
2023-01-28T10:03:02.434Z,0.90
2023-01-28T10:05:41.045Z,1.00
2023-01-28T10:08:30.825Z,1.10
2023-01-28T10:11:10.586Z,1.10
2023-01-28T10:13:47.596Z,1.10
2023-01-28T10:16:28.855Z,1.20
2023-01-28T10:19:02.040Z,1.10
2023-01-28T10:21:37.662Z,1.20
2023-01-28T10:24:12.623Z,1.10
2023-01-28T10:26:42.523Z,1.10
2023-01-28T10:29:15.713Z,1.10
2023-01-28T10:31:53.413Z,1.10
2023-01-28T10:34:22.961Z,1.10
2023-01-28T10:36:53.136Z,1.20
2023-01-28T10:39:24.731Z,1.20
2023-01-28T10:41:58.204Z,1.10
2023-01-28T10:44:33.587Z,1.20
2023-01-28T10:47:06.128Z,1.20
2023-01-28T10:49:43.102Z,1.20
2023-01-28T10:52:16.847Z,1.20
2023-01-28T10:54:44.852Z,1.30
2023-01-28T10:57:15.658Z,1.30
2023-01-28T10:59:44.675Z,1.30
2023-01-28T11:02:36.953Z,1.30
2023-01-28T11:05:09.152Z,1.30
2023-01-28T11:07:38.656Z,1.30
2023-01-28T11:10:28.755Z,1.40
2023-01-28T11:12:57.721Z,1.40
2023-01-28T11:15:26.168Z,1.40
2023-01-28T11:18:00.508Z,1.40
2023-01-28T11:20:31.511Z,1.40
2023-01-28T11:23:00.959Z,1.40
2023-01-28T11:25:32.547Z,1.40
2023-01-28T11:28:02.001Z,1.40
2023-01-28T11:30:33.271Z,1.50
2023-01-28T11:33:09.284Z,1.50
2023-01-28T11:35:37.533Z,1.50
2023-01-28T11:38:19.369Z,1.60
2023-01-28T11:40:53.042Z,1.70
2023-01-28T11:43:24.002Z,1.80
2023-01-28T11:46:01.821Z,1.90
2023-01-28T11:48:42.955Z,2.00
2023-01-28T11:51:25.117Z,2.00
2023-01-28T11:54:07.708Z,2.10
2023-01-28T11:56:50.760Z,2.20
2023-01-28T11:59:43.582Z,2.20
2023-01-28T12:02:27.497Z,2.30
2023-01-28T12:05:08.780Z,2.30
2023-01-28T12:07:43.728Z,2.10
2023-01-28T12:10:21.617Z,2.00
2023-01-28T12:13:09.215Z,2.10
2023-01-28T12:16:00.196Z,2.00
2023-01-28T12:18:52.217Z,1.90
2023-01-28T12:21:31.747Z,1.90
2023-01-28T12:24:13.442Z,2.00
2023-01-28T12:26:50.273Z,1.90
2023-01-28T12:29:30.913Z,1.80
2023-01-28T12:32:15.067Z,1.80
2023-01-28T12:35:12.888Z,1.70
2023-01-28T12:37:54.059Z,1.70
2023-01-28T12:40:44.137Z,1.70
2023-01-28T12:43:20.019Z,1.80
2023-01-28T12:45:53.386Z,2.10
2023-01-28T12:48:28.161Z,2.30
2023-01-28T12:51:01.471Z,2.50
2023-01-28T12:53:36.788Z,2.70
2023-01-28T12:56:09.362Z,2.80
2023-01-28T12:58:44.653Z,3.00
2023-01-28T13:01:17.205Z,3.10
2023-01-28T13:03:54.468Z,3.30
2023-01-28T13:06:29.849Z,3.70
2023-01-28T13:09:01.826Z,4.70
2023-01-28T13:11:37.248Z,5.70
2023-01-28T13:14:08.340Z,6.50
2023-01-28T13:16:38.224Z,6.80
2023-01-28T13:19:09.479Z,6.70
2023-01-28T13:21:48.679Z,6.40
2023-01-28T13:24:36.066Z,6.10
2023-01-28T13:27:14.277Z,5.70
2023-01-28T13:29:49.608Z,5.50
2023-01-28T13:32:32.135Z,5.30
2023-01-28T13:35:03.582Z,5.30
2023-01-28T13:37:34.742Z,5.50
2023-01-28T13:40:23.774Z,6.00
2023-01-28T13:43:00.771Z,6.70
2023-01-28T13:45:30.870Z,7.60
2023-01-28T13:48:03.462Z,8.10
2023-01-28T13:50:40.337Z,8.30
2023-01-28T13:53:21.189Z,7.70
2023-01-28T13:55:51.746Z,7.40
2023-01-28T13:59:06.845Z,7.10
2023-01-28T14:02:07.793Z,6.50
2023-01-28T14:05:03.543Z,6.20
2023-01-28T14:08:02.084Z,6.50
2023-01-28T14:10:40.064Z,7.50
2023-01-28T14:13:34.740Z,8.10
2023-01-28T14:16:23.321Z,8.50
2023-01-28T14:18:53.487Z,9.00
2023-01-28T14:21:23.640Z,9.30
2023-01-28T14:23:54.434Z,9.80
2023-01-28T14:26:35.694Z,10.00
2023-01-28T14:29:26.859Z,10.30
2023-01-28T14:31:56.177Z,10.40
2023-01-28T14:34:29.632Z,10.20
2023-01-28T14:37:01.410Z,10.10
2023-01-28T14:39:32.192Z,10.20
2023-01-28T14:42:03.586Z,10.60
2023-01-28T14:44:35.127Z,10.70
2023-01-28T14:47:39.955Z,10.90
2023-01-28T14:50:25.553Z,10.90
2023-01-28T14:53:27.408Z,10.80
2023-01-28T14:56:07.146Z,10.50
2023-01-28T14:58:40.375Z,10.10
2023-01-28T15:01:22.163Z,9.30
2023-01-28T15:03:50.501Z,8.50
2023-01-28T15:06:24.200Z,7.80
2023-01-28T15:08:52.950Z,7.10
2023-01-28T15:11:23.890Z,6.80
2023-01-28T15:13:56.577Z,6.50
2023-01-28T15:16:29.068Z,6.10
2023-01-28T15:18:57.952Z,5.60
2023-01-28T15:21:29.792Z,5.30
2023-01-28T15:24:00.411Z,4.90
2023-01-28T15:26:31.052Z,4.50
2023-01-28T15:29:00.376Z,4.20
2023-01-28T15:31:31.189Z,3.90
2023-01-28T15:34:00.780Z,3.70
2023-01-28T15:36:31.625Z,3.50
2023-01-28T15:39:00.810Z,3.20
2023-01-28T15:41:31.940Z,3.10
2023-01-28T15:44:01.141Z,2.90
2023-01-28T15:46:29.189Z,2.80
2023-01-28T15:49:00.566Z,2.60
2023-01-28T15:51:32.080Z,2.50
2023-01-28T15:54:04.566Z,2.30
2023-01-28T15:56:33.397Z,2.20
2023-01-28T15:59:18.796Z,2.00
2023-01-28T16:01:47.045Z,1.90
2023-01-28T16:04:24.987Z,1.70
2023-01-28T16:06:58.668Z,1.60
2023-01-28T16:09:29.690Z,1.50
2023-01-28T16:12:03.921Z,1.40
2023-01-28T16:14:37.687Z,1.30
2023-01-28T16:17:05.849Z,1.30
2023-01-28T16:19:38.942Z,1.20
2023-01-28T16:22:09.834Z,1.10
2023-01-28T16:24:38.109Z,1.00
2023-01-28T16:27:19.952Z,1.00
2023-01-28T16:29:48.199Z,0.90
2023-01-28T16:32:31.703Z,0.90
2023-01-28T16:34:59.851Z,0.80
2023-01-28T16:37:29.320Z,0.80
2023-01-28T16:39:59.101Z,0.70
2023-01-28T16:42:29.552Z,0.60
2023-01-28T16:44:57.636Z,0.60
2023-01-28T16:47:25.847Z,0.50
2023-01-28T16:49:54.024Z,0.40
2023-01-28T16:52:22.183Z,0.30
2023-01-28T16:54:51.646Z,0.30
2023-01-28T16:57:22.497Z,0.20
2023-01-28T16:59:50.529Z,0.10
2023-01-28T17:02:18.901Z,0.10
2023-01-28T17:04:46.989Z,0.00
2023-01-28T17:07:15.930Z,0.00
2023-01-28T17:09:43.985Z,-0.10
2023-01-28T17:12:13.460Z,-0.10
2023-01-28T17:14:41.550Z,-0.20
2023-01-28T17:17:09.806Z,-0.30
2023-01-28T17:19:37.864Z,-0.30
2023-01-28T17:22:05.874Z,-0.40
2023-01-28T17:24:34.017Z,-0.40
2023-01-28T17:27:02.121Z,-0.50
2023-01-28T17:29:31.616Z,-0.50
2023-01-28T17:32:00.233Z,-0.60
2023-01-28T17:34:28.646Z,-0.70
2023-01-28T17:36:56.935Z,-0.70
2023-01-28T17:39:25.262Z,-0.80
2023-01-28T17:41:53.354Z,-0.80
2023-01-28T17:44:22.017Z,-0.90
2023-01-28T17:46:51.526Z,-0.90
2023-01-28T17:49:19.699Z,-1.00
2023-01-28T17:51:48.706Z,-1.00
2023-01-28T17:54:16.993Z,-1.10
2023-01-28T17:56:45.170Z,-1.20
2023-01-28T17:59:16.805Z,-1.20
2023-01-28T18:01:47.746Z,-1.20
2023-01-28T18:04:17.275Z,-1.30
2023-01-28T18:06:47.038Z,-1.30
2023-01-28T18:09:15.074Z,-1.40
2023-01-28T18:11:43.527Z,-1.40
2023-01-28T18:14:11.799Z,-1.50
2023-01-28T18:16:40.197Z,-1.50
2023-01-28T18:19:10.255Z,-1.50
2023-01-28T18:21:57.162Z,-1.50
2023-01-28T18:24:27.249Z,-1.60
2023-01-28T18:26:58.314Z,-1.60
2023-01-28T18:29:26.999Z,-1.70
2023-01-28T18:31:56.360Z,-1.70
2023-01-28T18:34:25.660Z,-1.80
2023-01-28T18:36:57.122Z,-1.80
2023-01-28T18:39:27.466Z,-1.80
2023-01-28T18:41:55.808Z,-1.80
2023-01-28T18:44:24.955Z,-1.90
2023-01-28T18:46:54.220Z,-1.90
2023-01-28T18:49:22.777Z,-2.00
2023-01-28T18:51:51.311Z,-2.00
2023-01-28T18:54:21.039Z,-2.00
2023-01-28T18:56:50.135Z,-2.10
2023-01-28T18:59:18.265Z,-2.10
2023-01-28T19:01:47.948Z,-2.10
2023-01-28T19:04:16.677Z,-2.20
2023-01-28T19:06:44.878Z,-2.20
2023-01-28T19:09:14.689Z,-2.20
2023-01-28T19:11:44.146Z,-2.20
2023-01-28T19:14:14.909Z,-2.30
2023-01-28T19:16:43.817Z,-2.30
2023-01-28T19:19:12.131Z,-2.30
2023-01-28T19:21:40.272Z,-2.30
2023-01-28T19:24:11.617Z,-2.30
2023-01-28T19:26:39.827Z,-2.20
2023-01-28T19:29:10.294Z,-2.20
2023-01-28T19:31:39.146Z,-2.30
2023-01-28T19:34:08.482Z,-2.30
2023-01-28T19:36:37.141Z,-2.30
2023-01-28T19:39:07.950Z,-2.20
2023-01-28T19:41:36.603Z,-2.10
2023-01-28T19:44:05.127Z,-2.10
2023-01-28T19:46:36.091Z,-2.00
2023-01-28T19:49:05.943Z,-2.00
2023-01-28T19:51:34.061Z,-2.00
2023-01-28T19:54:02.389Z,-2.00
2023-01-28T19:56:30.820Z,-2.00
2023-01-28T19:58:59.241Z,-1.90
2023-01-28T20:01:30.541Z,-1.90
2023-01-28T20:04:01.767Z,-1.80
2023-01-28T20:06:31.471Z,-1.80
2023-01-28T20:09:02.074Z,-1.80
2023-01-28T20:11:30.271Z,-1.90
2023-01-28T20:13:59.733Z,-1.90
2023-01-28T20:16:29.771Z,-1.90
2023-01-28T20:19:00.549Z,-1.90
2023-01-28T20:21:29.563Z,-1.80
2023-01-28T20:23:59.990Z,-1.80
2023-01-28T20:26:33.868Z,-1.80
2023-01-28T20:29:03.409Z,-1.80
2023-01-28T20:31:32.773Z,-1.80
2023-01-28T20:34:03.101Z,-1.70
2023-01-28T20:36:31.745Z,-1.70
2023-01-28T20:39:00.477Z,-1.70
2023-01-28T20:41:28.659Z,-1.60
2023-01-28T20:43:57.798Z,-1.60
2023-01-28T20:46:28.493Z,-1.50
2023-01-28T20:48:58.403Z,-1.40
2023-01-28T20:51:29.671Z,-1.40
2023-01-28T20:54:00.529Z,-1.30
2023-01-28T20:56:31.109Z,-1.30
2023-01-28T20:59:00.860Z,-1.30
2023-01-28T21:01:31.002Z,-1.30
2023-01-28T21:03:59.325Z,-1.30
2023-01-28T21:06:29.442Z,-1.30
2023-01-28T21:08:58.230Z,-1.40
2023-01-28T21:11:28.023Z,-1.40
2023-01-28T21:13:57.028Z,-1.40
2023-01-28T21:16:26.061Z,-1.30
2023-01-28T21:18:54.606Z,-1.30
2023-01-28T21:21:24.719Z,-1.30
2023-01-28T21:23:57.843Z,-1.30
2023-01-28T21:26:26.467Z,-1.20
2023-01-28T21:28:56.211Z,-1.10
2023-01-28T21:31:26.299Z,-1.10
2023-01-28T21:33:56.292Z,-1.10
2023-01-28T21:36:25.777Z,-1.00
2023-01-28T21:38:56.977Z,-1.00
2023-01-28T21:41:25.539Z,-0.90
2023-01-28T21:43:55.757Z,-0.90
2023-01-28T21:46:25.219Z,-0.80
2023-01-28T21:48:56.165Z,-0.80
2023-01-28T21:51:36.513Z,-0.80
2023-01-28T21:54:08.400Z,-0.70
2023-01-28T21:56:36.650Z,-0.70
2023-01-28T21:59:22.601Z,-0.70
2023-01-28T22:01:50.799Z,-0.60
2023-01-28T22:04:19.128Z,-0.50
2023-01-28T22:06:47.349Z,-0.50
2023-01-28T22:09:16.963Z,-0.40
2023-01-28T22:11:46.599Z,-0.40
2023-01-28T22:14:14.827Z,-0.30
2023-01-28T22:16:43.726Z,-0.30
2023-01-28T22:19:12.534Z,-0.30
2023-01-28T22:21:42.017Z,-0.30
2023-01-28T22:24:12.286Z,-0.30
2023-01-28T22:26:42.986Z,-0.40
2023-01-28T22:29:11.446Z,-0.40
2023-01-28T22:31:40.272Z,-0.40
2023-01-28T22:34:08.543Z,-0.40
2023-01-28T22:36:37.285Z,-0.40
2023-01-28T22:39:07.399Z,-0.50
2023-01-28T22:41:36.015Z,-0.40
2023-01-28T22:44:05.672Z,-0.50
2023-01-28T22:46:34.971Z,-0.40
2023-01-28T22:49:03.727Z,-0.40
2023-01-28T22:51:34.350Z,-0.40
2023-01-28T22:54:02.774Z,-0.40
2023-01-28T22:56:31.809Z,-0.40
2023-01-28T22:59:01.737Z,-0.40
2023-01-28T23:01:31.907Z,-0.40
2023-01-28T23:04:00.491Z,-0.30
2023-01-28T23:06:30.040Z,-0.30
2023-01-28T23:08:58.679Z,-0.30
2023-01-28T23:11:27.651Z,-0.30
2023-01-28T23:14:15.608Z,-0.20
2023-01-28T23:17:02.978Z,-0.20
2023-01-28T23:20:03.315Z,-0.20
2023-01-28T23:22:50.917Z,-0.20
2023-01-28T23:25:19.991Z,-0.20
2023-01-28T23:27:48.124Z,-0.20
2023-01-28T23:30:17.245Z,-0.20
2023-01-28T23:32:49.809Z,-0.20
2023-01-28T23:35:19.861Z,-0.20
2023-01-28T23:37:49.145Z,-0.30
2023-01-28T23:40:18.124Z,-0.30
2023-01-28T23:42:49.747Z,-0.30
2023-01-28T23:45:18.061Z,-0.30
2023-01-28T23:47:47.816Z,-0.30
2023-01-28T23:50:16.905Z,-0.30
2023-01-28T23:52:45.272Z,-0.30
2023-01-28T23:55:13.520Z,-0.30
2023-01-28T23:57:41.625Z,-0.30
